Time;durP1;ratioP1;P1;durP2;ratioP2;P2;SDS_P1;SDS_P2;PMS_P1;PMS_P2;Temp;Humidity;BMP_temperature;BMP_pressure;BME280_temperature;BME280_humidity;BME280_pressure;Samples;Min_cycle;Max_cycle;Signal;HPM_P1;HPM_P2
2021/11/03 00:00:59;;;;;;;8.38;5.22;;;9.20;76.20;;;;;;5053914;28;20443;-68
2021/11/03 00:03:26;;;;;;;9.80;5.72;;;9.20;76.20;;;;;;5054220;28;20097;-69
2021/11/03 00:05:53;;;;;;;11.20;5.80;;;9.10;76.10;;;;;;5036367;28;20021;-68
2021/11/03 00:08:22;;;;;;;10.73;5.43;;;9.10;76.10;;;;;;5054629;28;20021;-69
2021/11/03 00:10:50;;;;;;;10.32;6.28;;;9.10;76.00;;;;;;5054337;28;20024;-67
2021/11/03 00:13:19;;;;;;;14.55;6.00;;;9.10;76.00;;;;;;5053529;28;20028;-69
2021/11/03 00:15:45;;;;;;;8.90;6.20;;;9.00;75.90;;;;;;5036401;28;20067;-68
2021/11/03 00:18:11;;;;;;;10.35;6.13;;;9.00;75.90;;;;;;5035930;28;20351;-68
2021/11/03 00:20:37;;;;;;;9.95;5.78;;;9.00;76.00;;;;;;5036373;28;20035;-68
2021/11/03 00:23:05;;;;;;;8.98;6.20;;;9.00;75.90;;;;;;5053381;28;20108;-67
2021/11/03 00:25:31;;;;;;;9.45;6.00;;;8.90;75.90;;;;;;5036172;28;20086;-69
2021/11/03 00:27:57;;;;;;;14.55;5.85;;;9.00;75.90;;;;;;5052274;28;20021;-68
2021/11/03 00:30:23;;;;;;;8.88;5.78;;;8.90;75.80;;;;;;5054331;28;20112;-68
2021/11/03 00:32:49;;;;;;;10.02;6.22;;;8.90;75.90;;;;;;5053693;28;20111;-68
2021/11/03 00:35:16;;;;;;;10.23;5.95;;;8.90;76.00;;;;;;5053774;28;20021;-70
2021/11/03 00:37:41;;;;;;;9.07;5.57;;;8.90;76.00;;;;;;5054168;28;20017;-69
2021/11/03 00:40:08;;;;;;;7.50;5.20;;;8.90;76.00;;;;;;5053355;28;20450;-68
2021/11/03 00:42:34;;;;;;;8.00;5.28;;;8.90;75.90;;;;;;5036134;28;20032;-70
2021/11/03 00:45:00;;;;;;;8.57;5.40;;;8.90;75.90;;;;;;5053730;28;20021;-69
2021/11/03 00:47:26;;;;;;;9.85;5.30;;;9.00;75.80;;;;;;5054055;28;20456;-73
2021/11/03 00:49:52;;;;;;;12.48;5.85;;;8.90;75.80;;;;;;5053581;28;20021;-69
2021/11/03 00:52:18;;;;;;;9.55;5.47;;;8.90;75.80;;;;;;5048338;28;20036;-70
2021/11/03 00:54:44;;;;;;;8.55;5.35;;;9.00;75.90;;;;;;5054824;28;20024;-69
2021/11/03 00:57:09;;;;;;;8.60;5.45;;;9.00;75.90;;;;;;5072768;28;20091;-69
2021/11/03 00:59:35;;;;;;;10.30;5.75;;;9.00;75.90;;;;;;5073318;28;20017;-69
2021/11/03 01:02:01;;;;;;;11.40;5.88;;;9.00;76.00;;;;;;5070978;28;20107;-69
2021/11/03 01:04:27;;;;;;;9.15;4.95;;;8.90;76.00;;;;;;5073836;28;20024;-69
2021/11/03 01:06:53;;;;;;;10.40;4.90;;;8.90;76.20;;;;;;5072627;28;20016;-69
2021/11/03 01:09:19;;;;;;;9.85;5.32;;;8.80;76.20;;;;;;5073297;28;20013;-68
2021/11/03 01:11:44;;;;;;;8.23;4.57;;;8.80;76.20;;;;;;5072966;28;20020;-68
2021/11/03 01:14:11;;;;;;;7.78;4.90;;;8.70;76.30;;;;;;5072630;28;20581;-69
2021/11/03 01:16:37;;;;;;;7.82;4.53;;;8.70;76.40;;;;;;5071876;28;20076;-70
2021/11/03 01:19:04;;;;;;;8.25;4.45;;;8.70;76.40;;;;;;5072463;28;20115;-69
2021/11/03 01:21:31;;;;;;;6.30;3.65;;;8.70;76.30;;;;;;5071755;28;20020;-69
2021/11/03 01:23:56;;;;;;;8.23;4.53;;;8.70;76.20;;;;;;5071062;28;20406;-69
2021/11/03 01:26:22;;;;;;;8.48;4.45;;;8.70;76.00;;;;;;5073152;28;20024;-70
2021/11/03 01:28:48;;;;;;;7.40;4.68;;;8.70;76.00;;;;;;5073002;28;20029;-70
2021/11/03 01:31:14;;;;;;;8.48;4.40;;;8.70;75.90;;;;;;5071170;28;20017;-68
2021/11/03 01:33:42;;;;;;;8.63;4.68;;;8.70;75.80;;;;;;5071544;28;20035;-69
2021/11/03 01:36:08;;;;;;;7.18;4.38;;;8.70;75.70;;;;;;5070798;28;20107;-69
2021/11/03 01:38:34;;;;;;;8.38;4.55;;;8.70;75.70;;;;;;5071523;28;20060;-70
2021/11/03 01:41:00;;;;;;;8.13;4.10;;;8.70;75.70;;;;;;5071161;28;20469;-68
2021/11/03 01:43:59;;;;;;;6.95;4.45;;;8.80;75.60;;;;;;5072283;28;20090;-69
2021/11/03 01:46:38;;;;;;;8.30;4.22;;;8.70;75.50;;;;;;5071493;28;20063;-68
2021/11/03 01:49:12;;;;;;;6.55;3.85;;;8.80;75.50;;;;;;5070533;28;20025;-68
2021/11/03 01:51:40;;;;;;;;;;;8.70;75.40;;;;;;5036128;28;20028;-69
2021/11/03 01:54:10;;;;;;;6.72;3.75;;;8.60;75.30;;;;;;5051499;28;19908;-67
2021/11/03 01:56:38;;;;;;;8.25;4.30;;;8.60;75.40;;;;;;5052162;28;20017;-68
2021/11/03 01:59:15;;;;;;;7.10;4.05;;;8.60;75.30;;;;;;5051566;28;20025;-69
2021/11/03 02:01:41;;;;;;;8.27;3.92;;;8.50;75.30;;;;;;5033961;28;20021;-69
2021/11/03 02:04:07;;;;;;;4.93;3.65;;;8.50;75.30;;;;;;5033566;28;20047;-69
2021/11/03 02:06:33;;;;;;;9.13;3.92;;;8.50;75.20;;;;;;5052311;28;20104;-69
2021/11/03 02:08:58;;;;;;;5.82;3.83;;;8.50;75.20;;;;;;5051652;28;20021;-69
2021/11/03 02:11:27;;;;;;;7.20;4.00;;;8.50;75.20;;;;;;5051806;28;20071;-68
2021/11/03 02:13:55;;;;;;;5.93;3.33;;;8.50;75.30;;;;;;5051122;28;20064;-68
2021/11/03 02:16:22;;;;;;;5.97;3.70;;;8.50;75.30;;;;;;5051911;28;20025;-68
2021/11/03 02:18:49;;;;;;;6.43;3.58;;;8.50;75.30;;;;;;5051526;28;20017;-69
2021/11/03 02:21:18;;;;;;;7.10;3.50;;;8.40;75.30;;;;;;5051578;28;20021;-68
2021/11/03 02:24:00;;;;;;;7.22;3.47;;;8.50;75.40;;;;;;5052222;28;20536;-68
2021/11/03 02:26:36;;;;;;;5.97;3.63;;;8.50;75.30;;;;;;5052065;28;20511;-69
2021/11/03 02:29:07;;;;;;;4.72;3.63;;;8.50;75.20;;;;;;5051681;28;20025;-69
2021/11/03 02:31:42;;;;;;;9.00;3.75;;;8.50;75.20;;;;;;5051642;28;20039;-69
2021/11/03 02:34:11;;;;;;;10.30;4.55;;;8.50;75.40;;;;;;5033556;28;20095;-68
2021/11/03 02:36:56;;;;;;;7.95;3.95;;;8.50;75.30;;;;;;5052007;28;20017;-69
2021/11/03 02:39:31;;;;;;;7.72;4.43;;;8.50;75.30;;;;;;5051799;28;20105;-69
2021/11/03 02:41:58;;;;;;;6.97;4.45;;;8.50;75.30;;;;;;5033344;28;20025;-68
2021/11/03 02:44:27;;;;;;;6.60;4.05;;;8.50;75.30;;;;;;5051643;28;20029;-68
2021/11/03 02:46:53;;;;;;;7.57;3.78;;;8.60;75.30;;;;;;5050993;28;20108;-68
2021/11/03 02:49:19;;;;;;;6.95;3.67;;;8.60;75.30;;;;;;5033982;28;20503;-70
2021/11/03 02:51:45;;;;;;;6.05;3.72;;;8.60;75.30;;;;;;5052979;28;20187;-70
2021/11/03 02:54:18;;;;;;;6.80;3.38;;;8.60;75.20;;;;;;5055103;28;20033;-68
2021/11/03 02:56:49;;;;;;;5.82;3.25;;;8.50;75.30;;;;;;5038407;28;20100;-69
2021/11/03 02:59:18;;;;;;;6.13;3.30;;;8.40;75.40;;;;;;5055113;28;20032;-67
2021/11/03 03:01:53;;;;;;;5.72;3.65;;;8.40;75.30;;;;;;5055599;28;20020;-67
2021/11/03 03:04:32;;;;;;;4.20;2.67;;;8.30;75.30;;;;;;5056269;28;20468;-69
2021/11/03 03:06:58;;;;;;;4.22;2.90;;;8.20;75.40;;;;;;5055189;28;20061;-67
2021/11/03 03:09:24;;;;;;;4.20;2.90;;;8.20;75.60;;;;;;5056073;28;20425;-69
2021/11/03 03:11:53;;;;;;;4.63;2.97;;;8.10;75.70;;;;;;5055085;28;20096;-69
2021/11/03 03:14:20;;;;;;;8.13;3.20;;;8.20;75.70;;;;;;5037476;28;20111;-67
2021/11/03 03:16:46;;;;;;;6.00;2.78;;;8.20;75.70;;;;;;5055237;28;20025;-68
2021/11/03 03:19:13;;;;;;;4.38;2.78;;;8.20;75.70;;;;;;5054830;28;20608;-70
2021/11/03 03:21:38;;;;;;;4.80;3.08;;;8.20;75.70;;;;;;5037025;28;20504;-68
2021/11/03 03:24:06;;;;;;;5.82;3.60;;;8.20;75.60;;;;;;5054690;28;20029;-67
2021/11/03 03:26:33;;;;;;;5.10;3.30;;;8.20;75.60;;;;;;5055214;28;20109;-70
2021/11/03 03:28:59;;;;;;;5.82;3.45;;;8.20;75.50;;;;;;5054929;28;20170;-66
2021/11/03 03:31:26;;;;;;;6.63;3.75;;;8.20;75.50;;;;;;5054819;28;20104;-67
2021/11/03 03:33:54;;;;;;;5.72;3.75;;;8.20;75.50;;;;;;5055172;28;20469;-66
2021/11/03 03:36:21;;;;;;;5.15;3.20;;;8.20;75.60;;;;;;5054929;28;20462;-66
2021/11/03 03:39:08;;;;;;;5.28;3.45;;;8.20;75.50;;;;;;5054992;28;20017;-67
2021/11/03 03:41:35;;;;;;;7.38;3.72;;;8.20;75.60;;;;;;5054644;28;20025;-67
2021/11/03 03:44:01;;;;;;;6.78;3.78;;;8.30;75.60;;;;;;5054899;28;20079;-68
2021/11/03 03:46:27;;;;;;;6.47;3.72;;;8.30;75.50;;;;;;5037566;28;20068;-68
2021/11/03 03:48:53;;;;;;;7.28;3.90;;;8.30;75.60;;;;;;5054845;28;20024;-63
2021/11/03 03:51:20;;;;;;;5.18;3.63;;;8.30;75.40;;;;;;5055288;28;20025;-69
2021/11/03 03:53:48;;;;;;;5.63;3.63;;;8.30;75.50;;;;;;5075050;28;20111;-68
2021/11/03 03:56:15;;;;;;;5.78;3.60;;;8.30;75.60;;;;;;5074516;28;20024;-67
2021/11/03 03:58:42;;;;;;;6.72;3.40;;;8.30;75.50;;;;;;5075126;28;20032;-68
2021/11/03 04:01:10;;;;;;;5.38;3.88;;;8.40;75.70;;;;;;5074055;28;20024;-67
2021/11/03 04:03:35;;;;;;;7.55;4.05;;;8.40;75.70;;;;;;5074188;28;20024;-68
2021/11/03 04:06:01;;;;;;;5.97;3.78;;;8.40;76.50;;;;;;5073950;28;20480;-68
2021/11/03 04:08:27;;;;;;;5.50;3.70;;;8.40;75.70;;;;;;5074486;28;20029;-69
2021/11/03 04:10:53;;;;;;;11.02;4.20;;;8.40;75.90;;;;;;5074110;28;20358;-67
2021/11/03 04:13:20;;;;;;;9.38;3.20;;;8.40;75.80;;;;;;5074390;28;20435;-69
2021/11/03 04:15:46;;;;;;;7.50;3.85;;;8.50;75.70;;;;;;5074086;28;20454;-67
2021/11/03 04:18:12;;;;;;;8.32;3.97;;;8.50;75.60;;;;;;5073727;28;20048;-67
2021/11/03 04:20:38;;;;;;;6.13;3.65;;;8.50;75.50;;;;;;5074350;28;20059;-67
2021/11/03 04:23:04;;;;;;;5.80;3.97;;;8.50;75.50;;;;;;5072375;28;20028;-68
2021/11/03 04:25:31;;;;;;;6.07;3.40;;;8.50;75.50;;;;;;5073983;28;20040;-69
2021/11/03 04:27:58;;;;;;;4.78;3.40;;;8.50;75.50;;;;;;5073311;28;20021;-68
2021/11/03 04:30:26;;;;;;;6.20;3.60;;;8.50;75.50;;;;;;5074371;28;20491;-68
2021/11/03 04:32:52;;;;;;;6.50;3.83;;;8.50;75.40;;;;;;5073581;28;20048;-67
2021/11/03 04:35:18;;;;;;;4.72;3.35;;;8.50;75.50;;;;;;5074200;28;20472;-69
2021/11/03 04:37:44;;;;;;;5.57;3.60;;;8.40;75.50;;;;;;5073961;28;20069;-69
2021/11/03 04:40:14;;;;;;;7.38;3.67;;;8.40;75.50;;;;;;5073658;28;20107;-68
2021/11/03 04:42:39;;;;;;;7.45;4.00;;;8.40;75.50;;;;;;5073713;28;20024;-69
2021/11/03 04:45:06;;;;;;;10.60;4.10;;;8.40;75.60;;;;;;5072353;28;20032;-69
2021/11/03 04:47:32;;;;;;;10.82;4.88;;;8.40;75.70;;;;;;5073967;28;20025;-68
2021/11/03 04:49:58;;;;;;;11.82;5.30;;;8.40;75.90;;;;;;5073355;28;20472;-67
2021/11/03 04:52:25;;;;;;;11.20;5.43;;;8.40;75.90;;;;;;5064418;28;20041;-67
2021/11/03 04:54:53;;;;;;;9.77;5.28;;;8.40;75.80;;;;;;5053661;28;20053;-67
2021/11/03 05:00:13;;;;;;;10.77;3.83;;;8.40;75.60;;;;;;5053121;28;20094;-69
2021/11/03 05:02:39;;;;;;;8.15;3.95;;;8.40;75.50;;;;;;5053242;28;20116;-69
2021/11/03 05:05:05;;;;;;;10.40;3.90;;;8.30;75.30;;;;;;5053131;28;20071;-68
2021/11/03 05:07:31;;;;;;;16.58;4.35;;;8.30;75.10;;;;;;5035790;28;20445;-67
2021/11/03 05:09:57;;;;;;;7.38;3.88;;;8.30;75.00;;;;;;5052661;28;20053;-68
2021/11/03 05:12:22;;;;;;;8.30;3.95;;;8.30;75.10;;;;;;5053284;28;20068;-68
2021/11/03 05:14:48;;;;;;;5.53;3.78;;;8.30;75.00;;;;;;5052766;28;20033;-68
2021/11/03 05:17:14;;;;;;;6.15;3.63;;;8.30;75.00;;;;;;5034442;28;20079;-68
2021/11/03 05:19:40;;;;;;;5.65;3.50;;;8.30;74.90;;;;;;5053113;28;20037;-68
2021/11/03 05:22:06;;;;;;;9.32;3.63;;;8.30;74.90;;;;;;5052109;28;20021;-69
2021/11/03 05:24:32;;;;;;;6.90;3.15;;;8.30;74.80;;;;;;5052950;28;20025;-69
2021/11/03 05:26:58;;;;;;;6.38;3.47;;;8.30;74.80;;;;;;5052192;28;20509;-69
2021/11/03 05:29:24;;;;;;;4.57;2.92;;;8.30;74.70;;;;;;5034832;28;20024;-69
2021/11/03 05:31:50;;;;;;;5.53;3.38;;;8.30;74.60;;;;;;5052076;28;20056;-69
2021/11/03 05:34:16;;;;;;;4.97;3.08;;;8.30;74.70;;;;;;5052049;28;20036;-68
2021/11/03 05:39:26;;;;;;;12.95;4.32;;;8.30;74.80;;;;;;5052279;28;20031;-68
2021/11/03 05:41:52;;;;;;;13.10;4.28;;;8.30;74.70;;;;;;5051849;28;20107;-67
2021/11/03 05:44:19;;;;;;;6.63;4.45;;;8.30;74.90;;;;;;5051997;28;20025;-62
2021/11/03 05:46:49;;;;;;;9.32;5.97;;;8.30;74.90;;;;;;5051265;28;20028;-64
2021/11/03 05:49:16;;;;;;;16.08;10.73;;;8.20;75.00;;;;;;5051456;28;20088;-62
2021/11/03 05:51:44;;;;;;;30.38;13.93;;;7.90;75.50;;;;;;5051460;28;20044;-63
2021/11/03 05:54:10;;;;;;;20.15;13.88;;;7.70;76.40;;;;;;5033874;28;20029;-61
2021/11/03 05:56:37;;;;;;;16.80;11.68;;;7.60;76.90;;;;;;5051281;28;20021;-66
2021/11/03 05:59:04;;;;;;;14.55;11.18;;;7.60;78.00;;;;;;5033296;28;20446;-62
2021/11/03 06:01:30;;;;;;;59.58;11.75;;;7.60;78.00;;;;;;5051317;28;20430;-62
2021/11/03 06:03:56;;;;;;;48.70;11.60;;;7.60;78.30;;;;;;5032839;28;20025;-63
2021/11/03 06:06:22;;;;;;;61.35;12.68;;;7.50;79.00;;;;;;5033775;28;20025;-65
2021/11/03 06:08:50;;;;;;;44.08;12.20;;;7.40;80.10;;;;;;5051850;28;20404;-62
2021/11/03 06:11:18;;;;;;;62.33;13.32;;;7.40;80.80;;;;;;5032641;28;20036;-64
2021/11/03 06:13:44;;;;;;;28.67;12.32;;;7.40;81.20;;;;;;5051730;28;20036;-72
2021/11/03 06:16:10;;;;;;;22.10;12.45;;;7.40;81.70;;;;;;5051207;28;20017;-73
2021/11/03 06:18:36;;;;;;;56.22;13.30;;;7.40;82.00;;;;;;5034104;28;20021;-70
2021/11/03 06:21:03;;;;;;;29.92;13.18;;;7.40;82.30;;;;;;5051364;28;20029;-71
2021/11/03 06:23:29;;;;;;;85.22;15.05;;;7.50;82.50;;;;;;5033921;28;20028;-70
2021/11/03 06:25:54;;;;;;;58.75;13.25;;;7.60;82.50;;;;;;5050948;28;20473;-69
2021/11/03 06:28:20;;;;;;;24.98;11.98;;;7.70;82.50;;;;;;5051385;28;20032;-69
2021/11/03 06:30:46;;;;;;;35.63;13.02;;;7.80;82.30;;;;;;5051752;28;20028;-69
2021/11/03 06:33:12;;;;;;;29.98;14.43;;;7.80;82.40;;;;;;5033043;28;20029;-68
2021/11/03 06:35:38;;;;;;;35.85;14.25;;;7.90;82.40;;;;;;5051576;28;20040;-68
2021/11/03 06:38:06;;;;;;;79.88;15.60;;;8.00;82.40;;;;;;5049820;28;20160;-68
2021/11/03 06:40:33;;;;;;;24.38;14.35;;;8.10;82.10;;;;;;5016335;28;20029;-68
2021/11/03 06:42:59;;;;;;;17.67;12.95;;;8.20;81.80;;;;;;5032631;28;20032;-68
2021/11/03 06:45:25;;;;;;;29.75;13.38;;;8.30;81.80;;;;;;5051401;28;20029;-68
2021/11/03 06:47:52;;;;;;;27.58;13.05;;;8.30;81.70;;;;;;5051395;28;20047;-68
2021/11/03 06:50:22;;;;;;;31.33;13.05;;;8.40;81.70;;;;;;5033078;28;20489;-68
2021/11/03 06:52:49;;;;;;;42.50;13.98;;;8.40;81.60;;;;;;5051115;28;20087;-68
2021/11/03 06:55:15;;;;;;;23.83;13.20;;;8.40;81.70;;;;;;5032558;28;20033;-68
2021/11/03 06:57:41;;;;;;;22.55;14.70;;;8.40;81.70;;;;;;5051001;28;20079;-68
2021/11/03 07:00:14;;;;;;;23.40;13.10;;;8.50;81.90;;;;;;5050256;28;20516;-68
2021/11/03 07:02:40;;;;;;;21.05;13.70;;;8.60;81.80;;;;;;5033473;28;20055;-69
2021/11/03 07:05:07;;;;;;;20.83;13.85;;;8.60;81.70;;;;;;5050881;28;20029;-67
2021/11/03 07:07:34;;;;;;;22.23;13.70;;;8.60;81.80;;;;;;5051108;28;20036;-70
2021/11/03 07:10:00;;;;;;;20.50;14.07;;;8.70;81.90;;;;;;5050353;28;20021;-69
2021/11/03 07:12:25;;;;;;;19.92;13.10;;;8.80;81.90;;;;;;5050750;28;20036;-69
2021/11/03 07:14:51;;;;;;;16.30;12.75;;;8.80;81.60;;;;;;5050885;28;20454;-69
2021/11/03 07:17:17;;;;;;;20.23;14.32;;;8.90;81.40;;;;;;5050137;28;20086;-68
2021/11/03 07:19:45;;;;;;;19.23;14.27;;;8.80;81.40;;;;;;5033268;28;20526;-69
2021/11/03 07:22:11;;;;;;;15.85;12.85;;;9.00;81.70;;;;;;5050044;28;20025;-69
2021/11/03 07:24:43;;;;;;;20.08;13.77;;;9.00;81.60;;;;;;5032386;28;20040;-68
2021/11/03 07:27:14;;;;;;;17.40;13.15;;;9.10;81.50;;;;;;5033133;28;20021;-69
2021/11/03 07:29:42;;;;;;;19.90;13.60;;;9.10;81.30;;;;;;5051516;28;20376;-63
2021/11/03 07:32:09;;;;;;;16.20;13.55;;;9.10;81.30;;;;;;5031640;28;20021;-62
2021/11/03 07:34:35;;;;;;;21.73;13.65;;;9.10;81.30;;;;;;5050731;28;20029;-61
2021/11/03 07:37:01;;;;;;;18.42;13.48;;;9.20;81.40;;;;;;5032342;28;20139;-62
2021/11/03 07:39:27;;;;;;;20.95;13.52;;;9.20;81.30;;;;;;5054535;28;20025;-62
2021/11/03 07:41:53;;;;;;;21.08;14.38;;;9.20;81.30;;;;;;5054497;28;20488;-62
2021/11/03 07:44:18;;;;;;;15.32;11.65;;;9.40;80.80;;;;;;5053632;28;20025;-61
2021/11/03 07:46:44;;;;;;;17.63;12.95;;;9.40;80.50;;;;;;5054188;28;20441;-61
2021/11/03 07:49:10;;;;;;;18.92;13.65;;;9.40;80.00;;;;;;5053742;28;20057;-62
2021/11/03 07:51:36;;;;;;;21.02;15.80;;;9.40;79.60;;;;;;5036078;28;20022;-62
2021/11/03 07:54:02;;;;;;;21.00;14.75;;;9.40;79.30;;;;;;5035589;28;20039;-63
2021/11/03 07:56:32;;;;;;;21.10;13.98;;;9.40;79.30;;;;;;5053844;28;20064;-62
2021/11/03 07:58:59;;;;;;;17.38;12.07;;;9.40;79.10;;;;;;5018889;28;20049;-64
2021/11/03 08:01:26;;;;;;;20.15;12.15;;;9.40;79.00;;;;;;5036018;28;20028;-63
2021/11/03 08:03:51;;;;;;;13.95;11.15;;;9.50;79.20;;;;;;5053734;28;20108;-63
2021/11/03 08:06:18;;;;;;;14.82;10.45;;;9.60;78.90;;;;;;5052660;28;20550;-62
2021/11/03 08:09:01;;;;;;;19.75;11.50;;;9.70;78.80;;;;;;5054029;28;20064;-63
2021/11/03 08:11:30;;;;;;;23.13;11.73;;;9.70;78.40;;;;;;5053776;28;20025;-68
2021/11/03 08:13:57;;;;;;;18.05;11.75;;;9.80;77.90;;;;;;5053026;28;20045;-73
2021/11/03 08:16:23;;;;;;;14.02;11.40;;;9.90;77.80;;;;;;5035229;28;20025;-69
2021/11/03 08:18:49;;;;;;;14.75;11.38;;;9.90;77.70;;;;;;5051878;28;20057;-64
2021/11/03 08:21:15;;;;;;;19.33;13.57;;;9.90;77.70;;;;;;5050185;28;20027;-62
2021/11/03 08:23:41;;;;;;;16.92;10.50;;;10.00;77.80;;;;;;5052903;28;20035;-61
2021/11/03 08:26:07;;;;;;;14.90;11.02;;;10.00;77.50;;;;;;5052279;28;20025;-62
2021/11/03 08:28:34;;;;;;;17.58;11.68;;;10.00;77.50;;;;;;5052904;28;20482;-60
2021/11/03 08:31:00;;;;;;;16.33;11.07;;;10.00;77.70;;;;;;5052152;28;20029;-61
2021/11/03 08:33:32;;;;;;;14.43;10.82;;;10.20;77.80;;;;;;5052431;28;20036;-62
2021/11/03 08:35:59;;;;;;;17.45;11.15;;;10.30;77.70;;;;;;5051641;28;20032;-62
2021/11/03 08:38:26;;;;;;;17.42;11.10;;;10.30;77.40;;;;;;5035087;28;20029;-63
2021/11/03 08:40:52;;;;;;;15.35;10.80;;;10.40;77.20;;;;;;5018318;28;20073;-66
2021/11/03 08:43:23;;;;;;;23.95;18.90;;;10.50;77.10;;;;;;5051320;28;20142;-67
2021/11/03 08:45:54;;;;;;;20.75;14.90;;;10.60;76.90;;;;;;5052356;28;20428;-64
2021/11/03 08:48:21;;;;;;;14.20;11.93;;;10.60;77.10;;;;;;5051245;28;20029;-65
2021/11/03 08:50:48;;;;;;;25.80;18.95;;;10.70;76.90;;;;;;5051875;28;20040;-62
2021/11/03 08:53:15;;;;;;;14.93;11.50;;;10.60;76.80;;;;;;5051554;28;20041;-60
2021/11/03 08:55:43;;;;;;;21.20;12.68;;;10.60;77.30;;;;;;5050968;28;20111;-60
2021/11/03 08:58:11;;;;;;;13.98;11.85;;;10.60;77.70;;;;;;5051520;28;20029;-62
2021/11/03 09:00:39;;;;;;;17.20;13.60;;;10.60;77.50;;;;;;5033858;28;20379;-63
2021/11/03 09:03:05;;;;;;;17.30;14.95;;;10.60;77.70;;;;;;5034538;28;20024;-62
2021/11/03 09:05:32;;;;;;;19.80;13.15;;;10.70;77.90;;;;;;5034031;28;20127;-60
2021/11/03 09:08:00;;;;;;;18.25;13.25;;;10.70;78.10;;;;;;5033118;28;20463;-60
2021/11/03 09:10:29;;;;;;;17.45;13.95;;;10.80;77.80;;;;;;5051120;28;20521;-61
2021/11/03 09:12:55;;;;;;;19.50;11.90;;;10.90;77.60;;;;;;5051387;28;20075;-61
2021/11/03 09:18:06;;;;;;;17.95;12.77;;;11.20;77.00;;;;;;5035319;28;20102;-61
2021/11/03 09:20:32;;;;;;;17.48;14.75;;;11.30;76.80;;;;;;5033804;28;20052;-63
2021/11/03 09:22:59;;;;;;;22.38;18.30;;;11.40;76.60;;;;;;5049655;28;20247;-63
2021/11/03 09:25:25;;;;;;;17.77;12.45;;;11.60;76.30;;;;;;5033881;28;20035;-57
2021/11/03 09:27:52;;;;;;;14.70;10.63;;;11.60;76.10;;;;;;5033149;28;20029;-61
2021/11/03 09:30:21;;;;;;;12.77;10.57;;;11.60;76.80;;;;;;5048679;28;20282;-59
2021/11/03 09:32:50;;;;;;;14.18;9.35;;;11.60;77.60;;;;;;5049865;28;20078;-63
2021/11/03 09:35:16;;;;;;;10.60;9.50;;;11.50;78.50;;;;;;5049858;28;20040;-61
2021/11/03 09:37:42;;;;;;;11.82;8.95;;;11.50;78.90;;;;;;5050607;28;20104;-63
2021/11/03 09:40:16;;;;;;;11.13;9.20;;;11.50;79.00;;;;;;5050017;28;20100;-61
2021/11/03 09:42:42;;;;;;;10.88;9.32;;;11.60;79.20;;;;;;5032730;28;20029;-62
2021/11/03 09:45:18;;;;;;;13.05;9.32;;;11.60;79.40;;;;;;5032254;28;20428;-61
2021/11/03 09:47:59;;;;;;;12.38;8.68;;;11.70;79.10;;;;;;5050908;28;20029;-61
2021/11/03 09:50:26;;;;;;;10.93;8.15;;;11.80;78.80;;;;;;5033427;28;20063;-61
2021/11/03 09:52:59;;;;;;;20.83;10.32;;;11.70;79.00;;;;;;5050292;28;20103;-60
2021/11/03 09:55:33;;;;;;;11.48;9.07;;;11.70;79.20;;;;;;5050113;28;20040;-60
2021/11/03 09:58:29;;;;;;;14.65;8.45;;;11.90;79.30;;;;;;5032367;28;20116;-60
2021/11/03 10:01:19;;;;;;;12.85;8.55;;;12.00;78.80;;;;;;5050490;28;20017;-60
2021/11/03 10:03:54;;;;;;;13.05;8.73;;;12.10;78.40;;;;;;5049455;28;20543;-61
2021/11/03 10:06:58;;;;;;;12.82;9.00;;;12.20;78.20;;;;;;5050328;28;20082;-61
2021/11/03 10:09:24;;;;;;;11.10;7.88;;;12.20;78.30;;;;;;5044859;28;20040;-62
2021/11/03 10:11:52;;;;;;;10.77;7.65;;;12.60;78.30;;;;;;5049444;28;20112;-62
2021/11/03 10:14:19;;;;;;;10.90;7.68;;;12.90;76.90;;;;;;5048910;28;20029;-62
2021/11/03 10:16:49;;;;;;;12.00;6.90;;;13.10;76.00;;;;;;5050237;28;20051;-64
2021/11/03 10:19:14;;;;;;;8.50;6.97;;;13.20;75.10;;;;;;5030933;28;20099;-62
2021/11/03 10:21:46;;;;;;;12.57;8.23;;;13.20;75.20;;;;;;5050182;28;20117;-62
2021/11/03 10:24:12;;;;;;;10.40;6.53;;;13.40;74.20;;;;;;5028952;28;20405;-60
2021/11/03 10:26:47;;;;;;;8.10;6.13;;;13.60;73.60;;;;;;5047982;28;20025;-61
2021/11/03 10:29:12;;;;;;;9.40;6.25;;;13.70;73.20;;;;;;5048032;28;20482;-63
2021/11/03 10:31:59;;;;;;;9.23;6.15;;;13.90;73.30;;;;;;5049168;28;20026;-61
2021/11/03 10:34:33;;;;;;;9.00;5.93;;;14.00;71.60;;;;;;5050537;28;20036;-59
2021/11/03 10:37:19;;;;;;;11.70;5.63;;;14.10;71.60;;;;;;5030714;28;20068;-61
2021/11/03 10:39:58;;;;;;;8.38;6.15;;;14.10;71.30;;;;;;5049337;28;20025;-61
2021/11/03 10:42:47;;;;;;;8.45;5.82;;;14.00;71.00;;;;;;5049627;28;20032;-60
2021/11/03 10:45:31;;;;;;;10.07;5.47;;;14.10;71.70;;;;;;5048001;28;20037;-62
2021/11/03 10:48:23;;;;;;;9.18;6.22;;;14.50;70.90;;;;;;5049228;28;20051;-60
2021/11/03 10:50:55;;;;;;;11.20;6.40;;;14.50;70.00;;;;;;5048875;28;20029;-66
2021/11/03 10:53:36;;;;;;;8.13;6.13;;;14.30;70.20;;;;;;5049546;28;20055;-61
2021/11/03 10:56:25;;;;;;;9.70;6.30;;;14.30;70.70;;;;;;5030641;28;20021;-62
2021/11/03 10:59:10;;;;;;;10.48;5.47;;;14.40;70.70;;;;;;5031378;28;20029;-62
2021/11/03 11:01:44;;;;;;;9.40;6.20;;;14.50;70.60;;;;;;5031262;28;20047;-61
2021/11/03 11:04:18;;;;;;;10.73;7.13;;;14.70;70.30;;;;;;5048645;28;20078;-61
2021/11/03 11:06:57;;;;;;;10.10;5.55;;;15.30;69.70;;;;;;5031264;28;20378;-62
2021/11/03 11:09:27;;;;;;;8.82;5.03;;;15.60;66.80;;;;;;5031827;28;20484;-60
2021/11/03 11:11:58;;;;;;;10.32;6.40;;;15.60;65.80;;;;;;5048420;28;20600;-65
2021/11/03 11:14:28;;;;;;;10.40;6.03;;;15.40;66.90;;;;;;5052373;28;20493;-63
2021/11/03 11:16:59;;;;;;;9.85;5.78;;;15.40;67.10;;;;;;5053367;28;20029;-63
2021/11/03 11:19:34;;;;;;;10.90;5.80;;;15.60;67.10;;;;;;5052815;28;20521;-63
2021/11/03 11:22:04;;;;;;;7.82;4.95;;;15.80;66.40;;;;;;5054470;28;20474;-63
2021/11/03 11:24:36;;;;;;;7.30;4.95;;;15.80;65.60;;;;;;5035183;28;20142;-60
2021/11/03 11:27:15;;;;;;;11.25;5.95;;;15.60;66.00;;;;;;5034229;28;20025;-62
2021/11/03 11:29:44;;;;;;;6.97;5.10;;;15.50;66.50;;;;;;5034998;28;20029;-61
2021/11/03 11:32:23;;;;;;;10.98;6.05;;;15.40;66.80;;;;;;5034350;28;20047;-61
2021/11/03 11:35:14;;;;;;;9.68;5.22;;;15.20;67.30;;;;;;5035565;28;20040;-62
2021/11/03 11:38:07;;;;;;;7.93;4.80;;;15.00;67.90;;;;;;5035887;28;20414;-61
2021/11/03 11:40:42;;;;;;;8.82;5.07;;;14.80;68.70;;;;;;5054123;28;20025;-62
2021/11/03 11:43:33;;;;;;;8.75;5.55;;;14.70;69.30;;;;;;5034498;28;20033;-61
2021/11/03 11:46:13;;;;;;;10.77;4.95;;;14.50;69.60;;;;;;5035013;28;20028;-60
2021/11/03 11:48:40;;;;;;;10.45;5.68;;;14.40;70.00;;;;;;5034439;28;20032;-59
2021/11/03 11:51:15;;;;;;;14.85;5.97;;;14.20;70.40;;;;;;5045123;28;20021;-58
2021/11/03 11:54:02;;;;;;;9.32;5.63;;;14.00;71.20;;;;;;5060261;28;20047;-62
2021/11/03 11:59:21;;;;;;;10.65;5.32;;;13.90;72.00;;;;;;5073563;28;20035;-61
2021/11/03 12:01:47;;;;;;;7.65;5.68;;;13.80;72.40;;;;;;5073438;28;20021;-56
2021/11/03 12:04:42;;;;;;;11.73;5.95;;;13.70;72.40;;;;;;5071024;28;20081;-60
2021/11/03 12:07:27;;;;;;;15.02;6.90;;;13.80;72.70;;;;;;5072060;28;20033;-58
2021/11/03 12:10:03;;;;;;;8.82;5.63;;;13.90;72.30;;;;;;5072630;28;20033;-57
2021/11/03 12:12:30;;;;;;;8.60;4.85;;;14.10;71.90;;;;;;5073137;28;20044;-59
2021/11/03 12:14:58;;;;;;;10.30;4.65;;;14.10;71.30;;;;;;5072275;28;20393;-58
2021/11/03 12:17:51;;;;;;;10.60;5.35;;;14.10;71.50;;;;;;5072799;28;20132;-57
2021/11/03 12:20:26;;;;;;;7.75;4.95;;;14.10;71.70;;;;;;5072469;28;20275;-60
2021/11/03 12:23:00;;;;;;;9.00;4.60;;;14.10;71.70;;;;;;5072007;28;20539;-59
2021/11/03 12:25:25;;;;;;;8.23;4.82;;;14.00;71.70;;;;;;5073019;28;20032;-57
2021/11/03 12:27:55;;;;;;;7.82;4.30;;;14.10;71.80;;;;;;5072090;28;20029;-58
2021/11/03 12:30:38;;;;;;;9.02;4.88;;;14.10;71.70;;;;;;5071241;28;20024;-58
2021/11/03 12:33:11;;;;;;;11.13;4.70;;;14.00;71.80;;;;;;5072136;28;20066;-62
2021/11/03 12:35:36;;;;;;;11.50;4.73;;;14.00;72.20;;;;;;5072111;28;20361;-56
2021/11/03 12:38:11;;;;;;;9.43;4.95;;;14.10;72.00;;;;;;5073632;28;20121;-56
2021/11/03 12:40:37;;;;;;;11.40;4.95;;;14.10;71.90;;;;;;5073678;28;20032;-58
2021/11/03 12:43:17;;;;;;;10.82;5.05;;;14.10;72.00;;;;;;5072360;28;20028;-55
2021/11/03 12:46:19;;;;;;;9.07;6.13;;;14.10;72.00;;;;;;5071690;28;20035;-57
2021/11/03 12:48:54;;;;;;;12.63;5.60;;;14.20;72.00;;;;;;4991627;28;20511;-59
2021/11/03 12:51:20;;;;;;;10.68;6.22;;;14.20;72.20;;;;;;5061784;28;20048;-58
2021/11/03 12:54:03;;;;;;;13.68;5.65;;;14.20;72.00;;;;;;5053352;28;20037;-56
2021/11/03 12:56:36;;;;;;;12.18;5.70;;;14.20;71.80;;;;;;5034913;28;20048;-56
2021/11/03 12:59:20;;;;;;;6.65;4.75;;;14.30;72.00;;;;;;5052978;28;20028;-56
2021/11/03 13:01:53;;;;;;;9.02;5.55;;;14.40;71.70;;;;;;5053729;28;20114;-56
2021/11/03 13:04:33;;;;;;;9.53;5.77;;;14.40;71.50;;;;;;5034830;28;20122;-56
2021/11/03 13:07:21;;;;;;;13.68;7.22;;;14.50;71.50;;;;;;5053037;28;20037;-56
2021/11/03 13:09:58;;;;;;;8.60;4.80;;;14.50;71.50;;;;;;5034024;28;20029;-55